No requiere especial atencion con respecto al clima.   -   No hay Alarmas

Informes de METAR cercanos

 

LEXJ - Santander/Parayas, Spain
Distance from station: ESE 6km
Actualización: 24/06/2018 21:30
Despejado
Despejado
 Viento del ENE
Viento: ENE 11 km/h
Temperatura: 22°C
Rocío: 16°C
Humedad: 69%
Barómetro: 1016 hPa
Resumen: Despejado
Visibility: greater than 10 km
2018/06/24 19:30 LEXJ 241930Z 07006KT 020V110 CAVOK 22/16 Q1016
LEBB - Bilbao/Sondica, Spain
Distance from station: ESE 80km
Actualización: 24/06/2018 21:30
Despejado
Despejado
 Viento del E
Viento: E 6 km/h
Temperatura: 25°C
Rocío: 13°C
Humedad: 47%
Barómetro: 1017 hPa
Resumen: Despejado
Visibility: greater than 10 km
2018/06/24 19:30 LEBB 241930Z 08003KT 030V120 CAVOK 25/13 Q1017 NOSIG
 
LEBL - Barcelona Airpor, Spain
Distance from station: ESE 726km
Actualización: 24/06/2018 21:30
Few Clouds
Few Clouds
 Viento del SSE
Viento: SSE 6 km/h
Temperatura: 23°C
Rocío: 17°C
Humedad: 69%
Barómetro: 1016 hPa
Clouds: Few Clouds
Visibility: 10 km
Cloud details: Few Clouds 914 m
2018/06/24 19:30 LEBL 241930Z 16003KT 130V190 9999 FEW030 23/17 Q1016 NOSIG
LEMD - Madrid/Barajas, Spain
Distance from station: S 325km
Actualización: 24/06/2018 21:30
Despejado
Despejado
 Viento del N
Viento: N 9 km/h
Temperatura: 33°C
Rocío: 12°C
Humedad: 28%
Barómetro: 1014 hPa
Resumen: Despejado
Visibility: greater than 10 km
2018/06/24 19:30 LEMD 241930Z 36005KT CAVOK 33/12 Q1014 NOSIG
 
LPPT - Lisbon/Portela, Portugal
Distance from station: SO 663km
Actualización: 24/06/2018 21:30
Few Clouds
Few Clouds
 Viento del ONO
Viento: ONO 17 km/h
Temperatura: 19°C
Rocío: 15°C
Humedad: 78%
Barómetro: 1015 hPa
Clouds: Few Clouds
Visibility: 10 km
Cloud details: Few Clouds 457 m
2018/06/24 19:30 LPPT 241930Z 30009KT 280V340 9999 FEW015 19/15 Q1015
LECO - La Coruna/Alvedr, Spain
Distance from station: O 349km
Actualización: 24/06/2018 21:30
Despejado
Despejado
 Viento del NNO
Viento: NNO 7 km/h
Temperatura: 23°C
Rocío: 17°C
Humedad: 69%
Barómetro: 1015 hPa
Resumen: Despejado
Visibility: greater than 10 km
2018/06/24 19:30 LECO 241930Z 34004KT 310V020 CAVOK 23/17 Q1015 NOSIG
 
LEST - Santiago/Labacol, Spain
Distance from station: O 358km
Actualización: 24/06/2018 21:30
Despejado
Despejado
 Viento del O
Viento: O 6 km/h
Temperatura: 25°C
Rocío: 20°C
Humedad: 74%
Barómetro: 1016 hPa
Resumen: Despejado
Visibility: greater than 10 km
2018/06/24 19:30 LEST 241930Z 28003KT 240V320 CAVOK 25/20 Q1016 NOSIG
EBBR - Brussels International Airport, Belgium
Distance from station: O 1339km
Actualización: 24/06/2018 21:50
Few Clouds
Few Clouds
 Viento del N
Viento: N 11 km/h
Temperatura: 15°C
Rocío: 9°C
Humedad: 68%
Barómetro: 1024 hPa
Clouds: Few Clouds
Visibility: 10 km
Cloud details: Few Clouds 945 m
2018/06/24 19:50 EBBR 241950Z 36006KT 9999 FEW031 15/09 Q1024 NOSIG